sensor_id;sensor_type;location;lat;lon;timestamp;temperature;humidity
32428;DHT22;18882;50.952;4.366;2022-10-16T00:01:13;14.90;99.90
32428;DHT22;18882;50.952;4.366;2022-10-16T00:03:40;14.90;99.90
32428;DHT22;18882;50.952;4.366;2022-10-16T00:06:07;14.90;99.90
32428;DHT22;18882;50.952;4.366;2022-10-16T00:08:33;15.00;99.90
32428;DHT22;18882;50.952;4.366;2022-10-16T00:11:01;14.90;99.90
32428;DHT22;18882;50.952;4.366;2022-10-16T00:13:28;14.90;99.90
32428;DHT22;18882;50.952;4.366;2022-10-16T00:15:56;14.80;99.90
32428;DHT22;18882;50.952;4.366;2022-10-16T00:18:22;14.80;99.90
32428;DHT22;18882;50.952;4.366;2022-10-16T00:20:47;15.00;99.90
32428;DHT22;18882;50.952;4.366;2022-10-16T00:23:13;14.90;99.90
32428;DHT22;18882;50.952;4.366;2022-10-16T00:25:39;14.80;99.90
32428;DHT22;18882;50.952;4.366;2022-10-16T00:28:04;14.90;99.90
32428;DHT22;18882;50.952;4.366;2022-10-16T00:30:30;14.80;99.90
32428;DHT22;18882;50.952;4.366;2022-10-16T00:32:56;14.80;99.90
32428;DHT22;18882;50.952;4.366;2022-10-16T00:35:22;14.70;99.90
32428;DHT22;18882;50.952;4.366;2022-10-16T00:37:47;14.80;99.90
32428;DHT22;18882;50.952;4.366;2022-10-16T00:40:13;14.90;99.90
32428;DHT22;18882;50.952;4.366;2022-10-16T00:42:39;14.80;99.90
32428;DHT22;18882;50.952;4.366;2022-10-16T00:45:06;14.80;99.90
32428;DHT22;18882;50.952;4.366;2022-10-16T00:47:39;14.70;99.90
32428;DHT22;18882;50.952;4.366;2022-10-16T00:50:33;14.60;99.90
32428;DHT22;18882;50.952;4.366;2022-10-16T00:53:00;14.60;99.90
32428;DHT22;18882;50.952;4.366;2022-10-16T00:55:27;14.70;99.90
32428;DHT22;18882;50.952;4.366;2022-10-16T00:57:56;14.60;99.90
32428;DHT22;18882;50.952;4.366;2022-10-16T01:00:25;14.60;99.90
32428;DHT22;18882;50.952;4.366;2022-10-16T01:02:56;14.60;99.90
32428;DHT22;18882;50.952;4.366;2022-10-16T01:05:45;14.60;99.90
32428;DHT22;18882;50.952;4.366;2022-10-16T01:08:22;14.60;99.90
32428;DHT22;18882;50.952;4.366;2022-10-16T01:10:59;14.70;99.90
32428;DHT22;18882;50.952;4.366;2022-10-16T01:13:38;14.60;99.90
32428;DHT22;18882;50.952;4.366;2022-10-16T01:16:07;14.60;99.90
32428;DHT22;18882;50.952;4.366;2022-10-16T01:18:45;14.50;99.90
32428;DHT22;18882;50.952;4.366;2022-10-16T01:21:36;14.50;99.90
32428;DHT22;18882;50.952;4.366;2022-10-16T01:24:28;14.50;99.90
32428;DHT22;18882;50.952;4.366;2022-10-16T01:27:23;14.40;99.90
32428;DHT22;18882;50.952;4.366;2022-10-16T01:30:02;14.40;99.90
32428;DHT22;18882;50.952;4.366;2022-10-16T01:35:27;14.40;99.90
32428;DHT22;18882;50.952;4.366;2022-10-16T01:40:34;14.30;99.90
32428;DHT22;18882;50.952;4.366;2022-10-16T01:43:19;14.40;99.90
32428;DHT22;18882;50.952;4.366;2022-10-16T01:45:46;14.30;99.90
32428;DHT22;18882;50.952;4.366;2022-10-16T01:48:17;14.30;99.90
32428;DHT22;18882;50.952;4.366;2022-10-16T01:51:09;14.30;99.90
32428;DHT22;18882;50.952;4.366;2022-10-16T01:53:33;14.30;99.90
32428;DHT22;18882;50.952;4.366;2022-10-16T01:56:00;14.40;99.90
32428;DHT22;18882;50.952;4.366;2022-10-16T01:58:28;14.40;99.90
32428;DHT22;18882;50.952;4.366;2022-10-16T02:01:00;14.30;99.90
32428;DHT22;18882;50.952;4.366;2022-10-16T02:03:27;14.30;99.90
32428;DHT22;18882;50.952;4.366;2022-10-16T02:05:55;14.30;99.90
32428;DHT22;18882;50.952;4.366;2022-10-16T02:08:23;14.30;99.90
32428;DHT22;18882;50.952;4.366;2022-10-16T02:10:49;14.30;99.90
32428;DHT22;18882;50.952;4.366;2022-10-16T02:13:26;14.30;99.90
32428;DHT22;18882;50.952;4.366;2022-10-16T02:15:53;14.30;99.90
32428;DHT22;18882;50.952;4.366;2022-10-16T02:18:19;14.40;99.90
32428;DHT22;18882;50.952;4.366;2022-10-16T02:20:58;14.30;99.90
32428;DHT22;18882;50.952;4.366;2022-10-16T02:23:37;14.30;99.90
32428;DHT22;18882;50.952;4.366;2022-10-16T02:26:10;14.20;99.90
32428;DHT22;18882;50.952;4.366;2022-10-16T02:28:42;14.20;99.90
32428;DHT22;18882;50.952;4.366;2022-10-16T02:31:11;14.10;99.90
32428;DHT22;18882;50.952;4.366;2022-10-16T02:33:40;14.20;99.90
32428;DHT22;18882;50.952;4.366;2022-10-16T02:36:08;14.20;99.90
32428;DHT22;18882;50.952;4.366;2022-10-16T02:38:34;14.30;99.90
32428;DHT22;18882;50.952;4.366;2022-10-16T02:41:01;14.30;99.90
32428;DHT22;18882;50.952;4.366;2022-10-16T02:43:28;14.30;99.90
32428;DHT22;18882;50.952;4.366;2022-10-16T02:45:54;14.20;99.90
32428;DHT22;18882;50.952;4.366;2022-10-16T02:48:19;14.20;99.90
32428;DHT22;18882;50.952;4.366;2022-10-16T02:50:45;14.20;99.90
32428;DHT22;18882;50.952;4.366;2022-10-16T02:53:11;14.20;99.90
32428;DHT22;18882;50.952;4.366;2022-10-16T02:55:36;14.30;99.90
32428;DHT22;18882;50.952;4.366;2022-10-16T02:58:02;14.40;99.90
32428;DHT22;18882;50.952;4.366;2022-10-16T03:00:28;14.40;99.90
32428;DHT22;18882;50.952;4.366;2022-10-16T03:02:54;14.40;99.90
32428;DHT22;18882;50.952;4.366;2022-10-16T03:05:20;14.40;99.90
32428;DHT22;18882;50.952;4.366;2022-10-16T03:07:45;14.40;99.90
32428;DHT22;18882;50.952;4.366;2022-10-16T03:10:11;14.30;99.90
32428;DHT22;18882;50.952;4.366;2022-10-16T03:12:37;14.20;99.90
32428;DHT22;18882;50.952;4.366;2022-10-16T03:15:03;14.10;99.90
32428;DHT22;18882;50.952;4.366;2022-10-16T03:17:29;14.10;99.90
32428;DHT22;18882;50.952;4.366;2022-10-16T03:19:54;14.20;99.90
32428;DHT22;18882;50.952;4.366;2022-10-16T03:22:20;14.20;99.90
32428;DHT22;18882;50.952;4.366;2022-10-16T03:24:45;14.20;99.90
32428;DHT22;18882;50.952;4.366;2022-10-16T03:27:11;14.30;99.90
32428;DHT22;18882;50.952;4.366;2022-10-16T03:29:37;14.20;99.90
32428;DHT22;18882;50.952;4.366;2022-10-16T03:32:03;14.20;99.90
32428;DHT22;18882;50.952;4.366;2022-10-16T03:34:28;14.20;99.90
32428;DHT22;18882;50.952;4.366;2022-10-16T03:36:55;14.10;99.90
32428;DHT22;18882;50.952;4.366;2022-10-16T03:39:20;14.20;99.90
32428;DHT22;18882;50.952;4.366;2022-10-16T03:41:46;14.20;99.90
32428;DHT22;18882;50.952;4.366;2022-10-16T03:44:12;14.20;99.90
32428;DHT22;18882;50.952;4.366;2022-10-16T03:46:38;14.20;99.90
32428;DHT22;18882;50.952;4.366;2022-10-16T03:49:03;14.20;99.90
32428;DHT22;18882;50.952;4.366;2022-10-16T03:51:29;14.20;99.90
32428;DHT22;18882;50.952;4.366;2022-10-16T03:53:54;14.30;99.90
32428;DHT22;18882;50.952;4.366;2022-10-16T03:56:20;14.40;99.90
32428;DHT22;18882;50.952;4.366;2022-10-16T03:58:46;14.40;99.90
32428;DHT22;18882;50.952;4.366;2022-10-16T04:01:11;14.50;99.90
32428;DHT22;18882;50.952;4.366;2022-10-16T04:03:37;14.50;99.90
32428;DHT22;18882;50.952;4.366;2022-10-16T04:06:03;14.50;99.90
32428;DHT22;18882;50.952;4.366;2022-10-16T04:08:28;14.40;99.90
32428;DHT22;18882;50.952;4.366;2022-10-16T04:10:54;14.30;99.90
32428;DHT22;18882;50.952;4.366;2022-10-16T04:13:20;14.40;99.90
32428;DHT22;18882;50.952;4.366;2022-10-16T04:15:45;14.40;99.90
32428;DHT22;18882;50.952;4.366;2022-10-16T04:18:11;14.20;99.90
32428;DHT22;18882;50.952;4.366;2022-10-16T04:20:37;14.10;99.90
32428;DHT22;18882;50.952;4.366;2022-10-16T04:23:03;14.20;99.90
32428;DHT22;18882;50.952;4.366;2022-10-16T04:25:28;14.20;99.90
32428;DHT22;18882;50.952;4.366;2022-10-16T04:27:54;14.20;99.90
32428;DHT22;18882;50.952;4.366;2022-10-16T04:30:21;14.20;99.90
32428;DHT22;18882;50.952;4.366;2022-10-16T04:32:53;14.20;99.90
32428;DHT22;18882;50.952;4.366;2022-10-16T04:35:19;14.10;99.90
32428;DHT22;18882;50.952;4.366;2022-10-16T04:37:45;14.20;99.90
32428;DHT22;18882;50.952;4.366;2022-10-16T04:40:12;14.00;99.90
32428;DHT22;18882;50.952;4.366;2022-10-16T04:42:37;14.00;99.90
32428;DHT22;18882;50.952;4.366;2022-10-16T04:45:05;14.10;99.90
32428;DHT22;18882;50.952;4.366;2022-10-16T04:47:30;14.10;99.90
32428;DHT22;18882;50.952;4.366;2022-10-16T04:49:56;14.00;99.90
32428;DHT22;18882;50.952;4.366;2022-10-16T04:52:22;14.00;99.90
32428;DHT22;18882;50.952;4.366;2022-10-16T04:54:50;14.10;99.90
32428;DHT22;18882;50.952;4.366;2022-10-16T04:57:16;14.10;99.90
32428;DHT22;18882;50.952;4.366;2022-10-16T04:59:41;14.10;99.90
32428;DHT22;18882;50.952;4.366;2022-10-16T05:02:07;14.10;99.90
32428;DHT22;18882;50.952;4.366;2022-10-16T05:04:33;14.10;99.90
32428;DHT22;18882;50.952;4.366;2022-10-16T05:06:58;14.20;99.90
32428;DHT22;18882;50.952;4.366;2022-10-16T05:09:24;14.00;99.90
32428;DHT22;18882;50.952;4.366;2022-10-16T05:11:49;13.90;99.90
32428;DHT22;18882;50.952;4.366;2022-10-16T05:14:15;13.90;99.90
32428;DHT22;18882;50.952;4.366;2022-10-16T05:16:41;13.90;99.90
32428;DHT22;18882;50.952;4.366;2022-10-16T05:19:07;13.90;99.90
32428;DHT22;18882;50.952;4.366;2022-10-16T05:21:32;14.00;99.90
32428;DHT22;18882;50.952;4.366;2022-10-16T05:23:58;13.90;99.90
32428;DHT22;18882;50.952;4.366;2022-10-16T05:26:24;13.90;99.90
32428;DHT22;18882;50.952;4.366;2022-10-16T05:28:49;13.90;99.90
32428;DHT22;18882;50.952;4.366;2022-10-16T05:31:15;14.00;99.90
32428;DHT22;18882;50.952;4.366;2022-10-16T05:33:41;13.90;99.90
32428;DHT22;18882;50.952;4.366;2022-10-16T05:36:08;13.90;99.90
32428;DHT22;18882;50.952;4.366;2022-10-16T05:38:35;13.90;99.90
32428;DHT22;18882;50.952;4.366;2022-10-16T05:41:01;13.90;99.90
32428;DHT22;18882;50.952;4.366;2022-10-16T05:43:30;14.00;99.90
32428;DHT22;18882;50.952;4.366;2022-10-16T05:45:58;13.90;99.90
32428;DHT22;18882;50.952;4.366;2022-10-16T05:48:25;13.90;99.90
32428;DHT22;18882;50.952;4.366;2022-10-16T05:51:05;13.80;99.90
32428;DHT22;18882;50.952;4.366;2022-10-16T05:53:33;13.80;99.90
32428;DHT22;18882;50.952;4.366;2022-10-16T05:56:00;13.80;99.90
32428;DHT22;18882;50.952;4.366;2022-10-16T05:58:29;13.90;99.90
32428;DHT22;18882;50.952;4.366;2022-10-16T06:01:04;13.90;99.90
32428;DHT22;18882;50.952;4.366;2022-10-16T06:03:32;13.80;99.90
32428;DHT22;18882;50.952;4.366;2022-10-16T06:05:58;13.80;99.90
32428;DHT22;18882;50.952;4.366;2022-10-16T06:08:24;13.80;99.90
32428;DHT22;18882;50.952;4.366;2022-10-16T06:11:03;13.90;99.90
32428;DHT22;18882;50.952;4.366;2022-10-16T06:13:29;13.80;99.90
32428;DHT22;18882;50.952;4.366;2022-10-16T06:15:57;14.00;99.90
32428;DHT22;18882;50.952;4.366;2022-10-16T06:18:24;14.00;99.90
32428;DHT22;18882;50.952;4.366;2022-10-16T06:20:49;14.00;99.90
32428;DHT22;18882;50.952;4.366;2022-10-16T06:23:15;14.00;99.90
32428;DHT22;18882;50.952;4.366;2022-10-16T06:25:41;14.10;99.90
32428;DHT22;18882;50.952;4.366;2022-10-16T06:28:07;14.20;99.90
32428;DHT22;18882;50.952;4.366;2022-10-16T06:30:33;14.20;99.90
32428;DHT22;18882;50.952;4.366;2022-10-16T06:32:59;14.20;99.90
32428;DHT22;18882;50.952;4.366;2022-10-16T06:35:25;14.20;99.90
32428;DHT22;18882;50.952;4.366;2022-10-16T06:37:53;14.20;99.90
32428;DHT22;18882;50.952;4.366;2022-10-16T06:40:18;14.20;99.90
32428;DHT22;18882;50.952;4.366;2022-10-16T06:42:44;14.20;99.90
32428;DHT22;18882;50.952;4.366;2022-10-16T06:45:10;14.20;99.90
32428;DHT22;18882;50.952;4.366;2022-10-16T06:47:36;14.30;99.90
32428;DHT22;18882;50.952;4.366;2022-10-16T06:50:03;14.30;99.90
32428;DHT22;18882;50.952;4.366;2022-10-16T06:52:29;14.30;99.90
32428;DHT22;18882;50.952;4.366;2022-10-16T06:54:55;14.30;99.90
32428;DHT22;18882;50.952;4.366;2022-10-16T06:57:20;14.40;99.90
32428;DHT22;18882;50.952;4.366;2022-10-16T06:59:47;14.50;99.90
32428;DHT22;18882;50.952;4.366;2022-10-16T07:02:12;14.60;99.90
32428;DHT22;18882;50.952;4.366;2022-10-16T07:04:38;14.70;99.90
32428;DHT22;18882;50.952;4.366;2022-10-16T07:07:04;14.70;99.90
32428;DHT22;18882;50.952;4.366;2022-10-16T07:09:29;14.60;99.90
32428;DHT22;18882;50.952;4.366;2022-10-16T07:11:55;14.50;99.90
32428;DHT22;18882;50.952;4.366;2022-10-16T07:14:21;14.50;99.90
32428;DHT22;18882;50.952;4.366;2022-10-16T07:16:47;14.50;99.90
32428;DHT22;18882;50.952;4.366;2022-10-16T07:19:14;14.30;99.90
32428;DHT22;18882;50.952;4.366;2022-10-16T07:21:41;14.30;99.90
32428;DHT22;18882;50.952;4.366;2022-10-16T07:24:11;14.20;99.90
32428;DHT22;18882;50.952;4.366;2022-10-16T07:26:37;14.30;99.90
32428;DHT22;18882;50.952;4.366;2022-10-16T07:29:05;14.40;99.90
32428;DHT22;18882;50.952;4.366;2022-10-16T07:31:31;14.40;99.90
32428;DHT22;18882;50.952;4.366;2022-10-16T07:33:59;14.40;99.90
32428;DHT22;18882;50.952;4.366;2022-10-16T07:36:25;14.60;99.90
32428;DHT22;18882;50.952;4.366;2022-10-16T07:38:51;14.60;99.90
32428;DHT22;18882;50.952;4.366;2022-10-16T07:41:18;14.70;99.90
32428;DHT22;18882;50.952;4.366;2022-10-16T07:43:51;14.70;99.90
32428;DHT22;18882;50.952;4.366;2022-10-16T07:46:18;14.70;99.90
32428;DHT22;18882;50.952;4.366;2022-10-16T07:48:44;14.70;99.90
32428;DHT22;18882;50.952;4.366;2022-10-16T07:51:17;14.70;99.90
32428;DHT22;18882;50.952;4.366;2022-10-16T07:53:43;14.80;99.90
32428;DHT22;18882;50.952;4.366;2022-10-16T07:56:09;14.80;99.90
32428;DHT22;18882;50.952;4.366;2022-10-16T07:58:36;14.80;99.90
32428;DHT22;18882;50.952;4.366;2022-10-16T08:01:06;14.90;99.90
32428;DHT22;18882;50.952;4.366;2022-10-16T08:03:32;15.00;99.90
32428;DHT22;18882;50.952;4.366;2022-10-16T08:05:59;15.00;99.90
32428;DHT22;18882;50.952;4.366;2022-10-16T08:08:25;15.10;99.90
32428;DHT22;18882;50.952;4.366;2022-10-16T08:10:51;15.20;99.90
32428;DHT22;18882;50.952;4.366;2022-10-16T08:13:17;15.20;99.90
32428;DHT22;18882;50.952;4.366;2022-10-16T08:15:43;15.30;99.90
32428;DHT22;18882;50.952;4.366;2022-10-16T08:18:11;15.40;99.90
32428;DHT22;18882;50.952;4.366;2022-10-16T08:20:37;15.50;99.90
32428;DHT22;18882;50.952;4.366;2022-10-16T08:23:03;15.40;99.90
32428;DHT22;18882;50.952;4.366;2022-10-16T08:25:29;15.40;99.90
32428;DHT22;18882;50.952;4.366;2022-10-16T08:27:55;15.50;99.90
32428;DHT22;18882;50.952;4.366;2022-10-16T08:30:22;15.60;99.90
32428;DHT22;18882;50.952;4.366;2022-10-16T08:32:48;15.50;99.90
32428;DHT22;18882;50.952;4.366;2022-10-16T08:35:14;15.60;99.90
32428;DHT22;18882;50.952;4.366;2022-10-16T08:37:40;15.60;99.90
32428;DHT22;18882;50.952;4.366;2022-10-16T08:40:10;15.80;99.90
32428;DHT22;18882;50.952;4.366;2022-10-16T08:51:03;16.10;99.90
32428;DHT22;18882;50.952;4.366;2022-10-16T08:53:46;16.20;99.90
32428;DHT22;18882;50.952;4.366;2022-10-16T08:56:13;16.20;99.90
32428;DHT22;18882;50.952;4.366;2022-10-16T08:58:39;16.20;99.90
32428;DHT22;18882;50.952;4.366;2022-10-16T09:01:12;16.30;99.90
32428;DHT22;18882;50.952;4.366;2022-10-16T09:09:56;16.50;99.90
32428;DHT22;18882;50.952;4.366;2022-10-16T09:12:27;16.60;99.90
32428;DHT22;18882;50.952;4.366;2022-10-16T09:15:06;16.70;99.90
32428;DHT22;18882;50.952;4.366;2022-10-16T09:20:31;16.90;99.90
32428;DHT22;18882;50.952;4.366;2022-10-16T09:23:36;17.10;99.90
32428;DHT22;18882;50.952;4.366;2022-10-16T09:26:02;17.20;99.90
32428;DHT22;18882;50.952;4.366;2022-10-16T09:28:29;17.20;99.90
32428;DHT22;18882;50.952;4.366;2022-10-16T09:30:54;17.30;99.90
32428;DHT22;18882;50.952;4.366;2022-10-16T09:33:32;17.40;99.90
32428;DHT22;18882;50.952;4.366;2022-10-16T09:35:59;17.50;99.90
32428;DHT22;18882;50.952;4.366;2022-10-16T09:38:35;17.60;99.90
32428;DHT22;18882;50.952;4.366;2022-10-16T09:41:22;17.70;99.90
32428;DHT22;18882;50.952;4.366;2022-10-16T09:43:54;17.70;99.90
32428;DHT22;18882;50.952;4.366;2022-10-16T09:46:34;17.80;99.90
32428;DHT22;18882;50.952;4.366;2022-10-16T09:49:03;17.90;99.90
32428;DHT22;18882;50.952;4.366;2022-10-16T09:51:35;17.90;99.90
32428;DHT22;18882;50.952;4.366;2022-10-16T09:54:19;18.00;99.90
32428;DHT22;18882;50.952;4.366;2022-10-16T09:56:45;18.00;99.90
32428;DHT22;18882;50.952;4.366;2022-10-16T09:59:15;17.90;99.90
32428;DHT22;18882;50.952;4.366;2022-10-16T10:01:53;17.80;99.90
32428;DHT22;18882;50.952;4.366;2022-10-16T10:04:22;17.90;99.90
32428;DHT22;18882;50.952;4.366;2022-10-16T10:06:52;17.90;99.90
32428;DHT22;18882;50.952;4.366;2022-10-16T10:09:39;18.10;99.90
32428;DHT22;18882;50.952;4.366;2022-10-16T10:12:06;18.20;99.90
32428;DHT22;18882;50.952;4.366;2022-10-16T10:14:47;18.30;99.90
32428;DHT22;18882;50.952;4.366;2022-10-16T10:17:25;18.40;99.90
32428;DHT22;18882;50.952;4.366;2022-10-16T10:19:57;18.70;99.90
32428;DHT22;18882;50.952;4.366;2022-10-16T10:25:00;19.10;99.90
32428;DHT22;18882;50.952;4.366;2022-10-16T10:27:32;19.10;99.90
32428;DHT22;18882;50.952;4.366;2022-10-16T10:30:24;19.20;99.90
32428;DHT22;18882;50.952;4.366;2022-10-16T10:33:05;19.30;99.90
32428;DHT22;18882;50.952;4.366;2022-10-16T10:38:56;19.80;99.90
32428;DHT22;18882;50.952;4.366;2022-10-16T10:52:12;20.30;99.90
32428;DHT22;18882;50.952;4.366;2022-10-16T10:54:57;20.50;99.90
32428;DHT22;18882;50.952;4.366;2022-10-16T10:57:34;20.40;99.90
32428;DHT22;18882;50.952;4.366;2022-10-16T11:00:30;20.40;99.90
32428;DHT22;18882;50.952;4.366;2022-10-16T11:05:51;20.20;99.90
32428;DHT22;18882;50.952;4.366;2022-10-16T11:08:39;20.20;99.90
32428;DHT22;18882;50.952;4.366;2022-10-16T11:11:08;20.30;99.90
32428;DHT22;18882;50.952;4.366;2022-10-16T11:16:29;20.20;99.90
32428;DHT22;18882;50.952;4.366;2022-10-16T11:19:10;20.10;99.90
32428;DHT22;18882;50.952;4.366;2022-10-16T11:21:46;19.90;99.90
32428;DHT22;18882;50.952;4.366;2022-10-16T11:24:35;19.80;99.90
32428;DHT22;18882;50.952;4.366;2022-10-16T11:27:08;19.80;99.90
32428;DHT22;18882;50.952;4.366;2022-10-16T11:29:35;19.90;99.90
32428;DHT22;18882;50.952;4.366;2022-10-16T11:32:15;19.90;99.90
32428;DHT22;18882;50.952;4.366;2022-10-16T11:34:49;20.10;99.90
32428;DHT22;18882;50.952;4.366;2022-10-16T11:39:45;20.30;99.90
32428;DHT22;18882;50.952;4.366;2022-10-16T11:42:34;20.10;99.90
32428;DHT22;18882;50.952;4.366;2022-10-16T11:45:15;20.20;99.90
32428;DHT22;18882;50.952;4.366;2022-10-16T11:48:24;20.40;99.90
32428;DHT22;18882;50.952;4.366;2022-10-16T11:50:56;20.60;99.90
32428;DHT22;18882;50.952;4.366;2022-10-16T11:56:15;20.20;99.90
32428;DHT22;18882;50.952;4.366;2022-10-16T11:58:54;20.30;99.90
32428;DHT22;18882;50.952;4.366;2022-10-16T12:04:29;20.20;99.90
32428;DHT22;18882;50.952;4.366;2022-10-16T12:07:05;20.20;99.90
32428;DHT22;18882;50.952;4.366;2022-10-16T12:09:36;20.00;99.90
32428;DHT22;18882;50.952;4.366;2022-10-16T12:12:03;19.90;99.90
32428;DHT22;18882;50.952;4.366;2022-10-16T12:14:38;20.10;99.90
32428;DHT22;18882;50.952;4.366;2022-10-16T12:17:35;20.00;99.90
32428;DHT22;18882;50.952;4.366;2022-10-16T12:20:19;20.00;99.90
32428;DHT22;18882;50.952;4.366;2022-10-16T12:25:36;20.20;99.90
32428;DHT22;18882;50.952;4.366;2022-10-16T12:28:25;20.40;99.90
32428;DHT22;18882;50.952;4.366;2022-10-16T12:30:57;20.50;99.90
32428;DHT22;18882;50.952;4.366;2022-10-16T12:33:26;20.50;99.90
32428;DHT22;18882;50.952;4.366;2022-10-16T12:35:53;20.60;99.90
32428;DHT22;18882;50.952;4.366;2022-10-16T12:38:25;20.60;99.90
32428;DHT22;18882;50.952;4.366;2022-10-16T12:40:59;20.80;99.90
32428;DHT22;18882;50.952;4.366;2022-10-16T12:43:37;20.90;99.90
32428;DHT22;18882;50.952;4.366;2022-10-16T12:46:20;20.80;99.90
32428;DHT22;18882;50.952;4.366;2022-10-16T12:48:46;20.90;99.90
32428;DHT22;18882;50.952;4.366;2022-10-16T12:51:33;21.10;99.90
32428;DHT22;18882;50.952;4.366;2022-10-16T12:56:58;21.00;99.90
32428;DHT22;18882;50.952;4.366;2022-10-16T13:05:41;21.00;99.90
32428;DHT22;18882;50.952;4.366;2022-10-16T13:07:48;21.00;99.90
32428;DHT22;18882;50.952;4.366;2022-10-16T13:10:21;21.00;99.90
32428;DHT22;18882;50.952;4.366;2022-10-16T13:15:28;20.90;99.90
32428;DHT22;18882;50.952;4.366;2022-10-16T13:29:01;20.60;99.90
32428;DHT22;18882;50.952;4.366;2022-10-16T13:31:28;20.60;99.90
32428;DHT22;18882;50.952;4.366;2022-10-16T13:33:56;20.70;99.90
32428;DHT22;18882;50.952;4.366;2022-10-16T13:36:26;20.70;99.90
32428;DHT22;18882;50.952;4.366;2022-10-16T13:39:10;20.70;99.90
32428;DHT22;18882;50.952;4.366;2022-10-16T13:41:37;20.70;99.90
32428;DHT22;18882;50.952;4.366;2022-10-16T13:44:03;20.80;99.90
32428;DHT22;18882;50.952;4.366;2022-10-16T13:46:34;20.70;99.90
32428;DHT22;18882;50.952;4.366;2022-10-16T13:49:12;20.80;99.90
32428;DHT22;18882;50.952;4.366;2022-10-16T13:51:38;20.70;99.90
32428;DHT22;18882;50.952;4.366;2022-10-16T13:54:04;20.60;99.90
32428;DHT22;18882;50.952;4.366;2022-10-16T13:56:31;20.60;99.90
32428;DHT22;18882;50.952;4.366;2022-10-16T13:59:04;20.80;99.90
32428;DHT22;18882;50.952;4.366;2022-10-16T14:01:35;20.70;99.90
32428;DHT22;18882;50.952;4.366;2022-10-16T14:04:11;20.70;99.90
32428;DHT22;18882;50.952;4.366;2022-10-16T14:06:41;20.40;99.90
32428;DHT22;18882;50.952;4.366;2022-10-16T14:09:26;20.50;99.90
32428;DHT22;18882;50.952;4.366;2022-10-16T14:12:12;20.40;99.90
32428;DHT22;18882;50.952;4.366;2022-10-16T14:14:44;20.50;99.90
32428;DHT22;18882;50.952;4.366;2022-10-16T14:17:18;20.60;99.90
32428;DHT22;18882;50.952;4.366;2022-10-16T14:19:49;20.70;99.90
32428;DHT22;18882;50.952;4.366;2022-10-16T14:22:38;20.60;99.90
32428;DHT22;18882;50.952;4.366;2022-10-16T14:25:28;20.60;99.90
32428;DHT22;18882;50.952;4.366;2022-10-16T14:28:14;20.60;99.90
32428;DHT22;18882;50.952;4.366;2022-10-16T14:30:51;20.20;99.90
32428;DHT22;18882;50.952;4.366;2022-10-16T14:36:11;20.40;99.90
32428;DHT22;18882;50.952;4.366;2022-10-16T14:38:59;20.20;99.90
32428;DHT22;18882;50.952;4.366;2022-10-16T14:41:26;20.10;99.90
32428;DHT22;18882;50.952;4.366;2022-10-16T14:43:56;20.00;99.90
32428;DHT22;18882;50.952;4.366;2022-10-16T14:46:35;19.90;99.90
32428;DHT22;18882;50.952;4.366;2022-10-16T14:49:20;20.00;99.90
32428;DHT22;18882;50.952;4.366;2022-10-16T14:51:47;19.90;99.90
32428;DHT22;18882;50.952;4.366;2022-10-16T14:54:18;19.90;99.90
32428;DHT22;18882;50.952;4.366;2022-10-16T14:56:50;20.00;99.90
32428;DHT22;18882;50.952;4.366;2022-10-16T14:59:24;20.00;99.90
32428;DHT22;18882;50.952;4.366;2022-10-16T15:01:50;20.00;99.90
32428;DHT22;18882;50.952;4.366;2022-10-16T15:04:16;20.00;99.90
32428;DHT22;18882;50.952;4.366;2022-10-16T15:06:43;20.10;99.90
32428;DHT22;18882;50.952;4.366;2022-10-16T15:09:08;20.20;99.90
32428;DHT22;18882;50.952;4.366;2022-10-16T15:11:34;20.20;99.90
32428;DHT22;18882;50.952;4.366;2022-10-16T15:14:00;20.20;99.90
32428;DHT22;18882;50.952;4.366;2022-10-16T15:16:25;20.20;99.90
32428;DHT22;18882;50.952;4.366;2022-10-16T15:18:51;20.10;99.90
32428;DHT22;18882;50.952;4.366;2022-10-16T15:21:27;20.10;99.90
32428;DHT22;18882;50.952;4.366;2022-10-16T15:23:53;20.00;99.90
32428;DHT22;18882;50.952;4.366;2022-10-16T15:26:19;20.00;99.90
32428;DHT22;18882;50.952;4.366;2022-10-16T15:28:45;20.10;99.90
32428;DHT22;18882;50.952;4.366;2022-10-16T15:31:10;20.10;99.90
32428;DHT22;18882;50.952;4.366;2022-10-16T15:33:36;20.20;99.90
32428;DHT22;18882;50.952;4.366;2022-10-16T15:36:02;20.20;99.90
32428;DHT22;18882;50.952;4.366;2022-10-16T15:38:29;20.00;99.90
32428;DHT22;18882;50.952;4.366;2022-10-16T15:40:56;20.00;99.90
32428;DHT22;18882;50.952;4.366;2022-10-16T15:43:22;19.90;99.90
32428;DHT22;18882;50.952;4.366;2022-10-16T15:46:04;19.80;99.90
32428;DHT22;18882;50.952;4.366;2022-10-16T15:48:31;19.80;99.90
32428;DHT22;18882;50.952;4.366;2022-10-16T15:50:57;19.70;99.90
32428;DHT22;18882;50.952;4.366;2022-10-16T15:53:23;19.70;99.90
32428;DHT22;18882;50.952;4.366;2022-10-16T15:55:49;19.70;99.90
32428;DHT22;18882;50.952;4.366;2022-10-16T15:58:15;19.50;99.90
32428;DHT22;18882;50.952;4.366;2022-10-16T16:00:40;19.40;99.90
32428;DHT22;18882;50.952;4.366;2022-10-16T16:03:06;19.40;99.90
32428;DHT22;18882;50.952;4.366;2022-10-16T16:05:31;19.50;99.90
32428;DHT22;18882;50.952;4.366;2022-10-16T16:07:58;19.50;99.90
32428;DHT22;18882;50.952;4.366;2022-10-16T16:10:24;19.40;99.90
32428;DHT22;18882;50.952;4.366;2022-10-16T16:12:50;19.30;99.90
32428;DHT22;18882;50.952;4.366;2022-10-16T16:15:20;19.30;99.90
32428;DHT22;18882;50.952;4.366;2022-10-16T16:17:45;19.20;99.90
32428;DHT22;18882;50.952;4.366;2022-10-16T16:20:11;19.20;99.90
32428;DHT22;18882;50.952;4.366;2022-10-16T16:22:37;19.10;99.90
32428;DHT22;18882;50.952;4.366;2022-10-16T16:25:03;19.10;99.90
32428;DHT22;18882;50.952;4.366;2022-10-16T16:27:29;19.00;99.90
32428;DHT22;18882;50.952;4.366;2022-10-16T16:29:58;18.90;99.90
32428;DHT22;18882;50.952;4.366;2022-10-16T16:32:23;18.90;99.90
32428;DHT22;18882;50.952;4.366;2022-10-16T16:34:49;18.90;99.90
32428;DHT22;18882;50.952;4.366;2022-10-16T16:37:15;18.70;99.90
32428;DHT22;18882;50.952;4.366;2022-10-16T16:39:41;18.70;99.90
32428;DHT22;18882;50.952;4.366;2022-10-16T16:42:07;18.70;99.90
32428;DHT22;18882;50.952;4.366;2022-10-16T16:44:34;18.70;99.90
32428;DHT22;18882;50.952;4.366;2022-10-16T16:47:02;18.50;99.90
32428;DHT22;18882;50.952;4.366;2022-10-16T16:49:28;18.50;99.90
32428;DHT22;18882;50.952;4.366;2022-10-16T16:51:54;18.40;99.90
32428;DHT22;18882;50.952;4.366;2022-10-16T16:54:20;18.40;99.90
32428;DHT22;18882;50.952;4.366;2022-10-16T16:56:46;18.40;99.90
32428;DHT22;18882;50.952;4.366;2022-10-16T16:59:18;18.20;99.90
32428;DHT22;18882;50.952;4.366;2022-10-16T17:01:45;18.20;99.90
32428;DHT22;18882;50.952;4.366;2022-10-16T17:04:11;18.20;99.90
32428;DHT22;18882;50.952;4.366;2022-10-16T17:06:37;18.10;99.90
32428;DHT22;18882;50.952;4.366;2022-10-16T17:09:04;18.10;99.90